Time;durP1;ratioP1;P1;durP2;ratioP2;P2;SDS_P1;SDS_P2;PMS_P1;PMS_P2;Temp;Humidity;BMP_temperature;BMP_pressure;BME280_temperature;BME280_humidity;BME280_pressure;Samples;Min_cycle;Max_cycle;Signal;HPM_P1;HPM_P2
2022/01/03 04:31:12;;;;;;;3.77;2.07;;;;;;;16.02;45.85;98873.19;7844524;23;20660;-85
2022/01/03 04:34:33;;;;;;;5.83;1.90;;;;;;;16.01;45.75;98885.97;6803296;29;20207;-86
2022/01/03 04:37:55;;;;;;;4.33;2.10;;;;;;;16.28;45.28;98880.84;6791287;29;20219;-85
2022/01/03 04:41:16;;;;;;;3.77;2.07;;;;;;;16.17;45.06;98878.97;6791555;29;20271;-84
2022/01/03 04:44:38;;;;;;;5.03;2.30;;;;;;;16.04;45.43;98884.66;6790902;29;20208;-85
2022/01/03 04:48:01;;;;;;;7.60;2.47;;;;;;;16.12;45.16;98892.44;6791026;29;20231;-85
2022/01/03 04:51:23;;;;;;;5.50;2.00;;;;;;;16.14;45.18;98902.03;6790991;29;20226;-84
2022/01/03 04:54:44;;;;;;;3.83;2.00;;;;;;;15.97;46.03;98917.41;6790952;29;20206;-85
2022/01/03 04:58:06;;;;;;;3.87;1.93;;;;;;;15.77;47.30;98905.22;6791202;29;20216;-85
2022/01/03 05:01:28;;;;;;;8.97;2.60;;;;;;;16.33;46.38;98906.25;6791036;29;20230;-85
2022/01/03 05:04:50;;;;;;;4.80;2.43;;;;;;;15.92;48.39;98919.19;6790244;29;20214;-85
2022/01/03 05:08:12;;;;;;;6.27;2.40;;;;;;;15.91;49.40;98923.78;6790937;29;20202;-86
2022/01/03 05:11:34;;;;;;;8.20;2.93;;;;;;;15.73;50.26;98937.50;6790977;29;20239;-85
2022/01/03 05:14:56;;;;;;;3.67;2.53;;;;;;;15.60;51.97;98934.16;6790658;29;20712;-85
2022/01/03 05:18:17;;;;;;;3.37;2.03;;;;;;;15.10;53.03;98925.47;6791037;29;20220;-86
2022/01/03 05:21:40;;;;;;;4.73;2.30;;;;;;;14.93;53.85;98956.25;6790800;29;20235;-85
2022/01/03 05:25:02;;;;;;;7.37;2.20;;;;;;;15.13;54.11;98938.63;6790052;29;20208;-84
2022/01/03 05:28:23;;;;;;;8.03;2.20;;;;;;;14.60;56.07;98931.41;6791922;29;20218;-84
2022/01/03 05:31:45;;;;;;;4.87;2.40;;;;;;;14.97;55.22;98935.69;6792685;29;20231;-86
2022/01/03 05:35:07;;;;;;;4.77;2.20;;;;;;;14.80;56.27;98946.38;6792317;29;20223;-85
2022/01/03 05:38:30;;;;;;;7.00;2.63;;;;;;;15.11;55.33;98940.72;6794898;29;20215;-85
2022/01/03 05:41:52;;;;;;;6.00;2.57;;;;;;;14.64;56.72;98949.69;6797185;29;20235;-85
2022/01/03 05:45:14;;;;;;;7.70;2.40;;;;;;;14.92;56.55;98933.69;6796894;29;20214;-84
2022/01/03 05:48:36;;;;;;;2.83;1.87;;;;;;;14.92;56.77;98928.25;6798007;29;20215;-84
2022/01/03 05:51:57;;;;;;;5.50;2.30;;;;;;;14.70;57.33;98937.94;6798312;29;20568;-84
2022/01/03 05:55:20;;;;;;;4.17;2.30;;;;;;;14.95;56.27;98916.94;6797267;29;20207;-84
2022/01/03 05:58:42;;;;;;;6.97;2.23;;;;;;;15.08;56.03;98937.63;6797401;29;20254;-86
2022/01/03 06:02:04;;;;;;;7.40;2.33;;;;;;;15.03;55.54;98934.78;6796904;29;20290;-86
2022/01/03 06:06:04;;;;;;;5.67;2.80;;;;;;;14.82;57.14;98938.00;6797147;29;20231;-84
2022/01/03 06:09:25;;;;;;;7.53;2.30;;;;;;;15.05;55.95;98932.69;6795916;29;20222;-85
2022/01/03 06:12:48;;;;;;;7.07;2.50;;;;;;;14.30;57.63;98930.50;6796536;29;20227;-86
2022/01/03 06:16:09;;;;;;;6.20;2.40;;;;;;;14.43;58.38;98935.78;6796968;29;20205;-84
2022/01/03 06:19:33;;;;;;;6.00;2.53;;;;;;;14.50;57.62;98899.38;6796959;29;20211;-85
2022/01/03 06:22:54;;;;;;;6.70;2.80;;;;;;;14.76;57.62;98925.34;6798769;29;20231;-84
2022/01/03 06:26:16;;;;;;;9.07;2.23;;;;;;;14.63;57.62;98910.06;6799666;29;20234;-85
2022/01/03 06:29:39;;;;;;;7.10;2.63;;;;;;;14.63;57.64;98912.78;6795875;29;20199;-84
2022/01/03 06:33:00;;;;;;;6.73;2.53;;;;;;;14.07;59.07;98914.03;6795743;29;20231;-85
2022/01/03 06:36:22;;;;;;;6.33;2.50;;;;;;;13.70;61.75;98942.13;6795329;29;20206;-85
2022/01/03 06:39:44;;;;;;;8.60;2.30;;;;;;;13.16;63.74;98947.31;6796173;29;20210;-84
2022/01/03 06:43:05;;;;;;;4.77;2.50;;;;;;;14.05;61.60;98946.78;6796207;29;20234;-85
2022/01/03 06:46:30;;;;;;;5.73;2.60;;;;;;;14.65;59.31;98943.25;6793176;29;20595;-85
2022/01/03 06:49:52;;;;;;;7.20;2.30;;;;;;;14.43;59.03;98930.34;6792271;29;20218;-85
2022/01/03 06:53:14;;;;;;;8.90;2.77;;;;;;;14.09;60.32;98903.81;6793019;29;20247;-84
2022/01/03 06:56:35;;;;;;;4.43;2.40;;;;;;;14.58;59.38;98928.09;6793529;29;20690;-85
2022/01/03 07:00:06;;;;;;;8.67;3.93;;;;;;;14.56;58.40;98916.63;6797621;29;20206;-85
2022/01/03 07:03:29;;;;;;;9.07;4.23;;;;;;;14.14;59.46;98937.31;6809316;28;20225;-85
2022/01/03 07:06:51;;;;;;;13.60;7.03;;;;;;;13.83;61.50;98947.41;6818962;29;20230;-87
2022/01/03 07:10:14;;;;;;;15.00;7.10;;;;;;;13.63;62.64;98942.16;6810181;29;20204;-85
2022/01/03 07:13:45;;;;;;;11.93;6.20;;;;;;;13.93;60.95;98899.78;6805019;29;20282;-85
2022/01/03 07:20:48;;;;;;;6.50;4.97;;;;;;;14.03;60.76;98910.09;6796399;29;20226;-86
2022/01/03 07:24:10;;;;;;;10.73;7.03;;;;;;;14.08;61.00;98942.78;6795796;29;20207;-85
2022/01/03 07:27:31;;;;;;;6.77;3.20;;;;;;;14.19;60.49;98928.53;6795330;29;20223;-85
2022/01/03 07:30:53;;;;;;;8.03;3.83;;;;;;;13.50;63.49;98941.44;6795516;29;20246;-84
2022/01/03 07:34:15;;;;;;;7.07;3.47;;;;;;;13.68;62.77;98953.19;6795435;29;20237;-86
2022/01/03 07:37:38;;;;;;;8.13;3.00;;;;;;;13.91;62.26;98945.25;6794859;29;20211;-85
2022/01/03 07:40:59;;;;;;;9.13;3.23;;;;;;;13.84;61.77;98921.97;6794625;29;20234;-85
2022/01/03 07:44:21;;;;;;;5.53;3.00;;;;;;;13.56;62.19;98927.84;6795186;29;20210;-85
2022/01/03 07:47:43;;;;;;;5.87;3.10;;;;;;;13.53;63.89;98930.19;6795936;29;20930;-85
2022/01/03 07:51:04;;;;;;;11.03;8.07;;;;;;;13.31;63.32;98913.47;6794022;29;20231;-85
2022/01/03 07:54:27;;;;;;;9.43;5.37;;;;;;;13.85;61.79;98913.63;6793072;29;20203;-85
2022/01/03 07:57:49;;;;;;;9.57;3.40;;;;;;;13.97;61.35;98919.13;6793434;29;20207;-86
2022/01/03 08:01:10;;;;;;;5.00;3.70;;;;;;;14.28;60.78;98921.78;6795500;29;20223;-84
2022/01/03 08:04:32;;;;;;;4.43;3.33;;;;;;;14.31;60.22;98914.00;6793793;29;20206;-84
2022/01/03 08:07:54;;;;;;;7.70;4.03;;;;;;;14.05;60.91;98914.25;6792813;29;20222;-85
2022/01/03 08:11:17;;;;;;;6.83;4.00;;;;;;;13.95;61.76;98921.25;6829543;29;20246;-85
2022/01/03 08:14:38;;;;;;;5.70;3.33;;;;;;;13.92;61.98;98924.41;6828460;29;20610;-84
2022/01/03 08:18:00;;;;;;;9.07;4.60;;;;;;;14.16;61.13;98905.38;6821961;29;20216;-84
2022/01/03 08:21:22;;;;;;;11.23;6.33;;;;;;;14.28;60.74;98910.91;6821676;29;20230;-85
2022/01/03 08:24:43;;;;;;;9.67;4.27;;;;;;;14.33;60.40;98916.50;6820312;29;20202;-86
2022/01/03 08:28:08;;;;;;;7.37;4.80;;;;;;;14.17;60.67;98912.44;6821117;29;20234;-85
2022/01/03 08:31:29;;;;;;;12.03;5.10;;;;;;;13.84;62.16;98909.25;6820231;29;20237;-84
2022/01/03 08:34:51;;;;;;;25.83;11.00;;;;;;;13.97;61.63;98908.28;6820084;29;20210;-85
2022/01/03 08:38:12;;;;;;;12.50;6.57;;;;;;;13.46;63.37;98910.44;6820064;29;20202;-84
2022/01/03 08:41:34;;;;;;;13.43;5.70;;;;;;;13.73;63.75;98925.41;6819308;29;20249;-85
2022/01/03 08:44:57;;;;;;;5.77;3.97;;;;;;;14.34;61.25;98918.97;6818116;29;20205;-85
2022/01/03 08:48:18;;;;;;;13.17;6.20;;;;;;;14.16;61.84;98929.78;6818424;28;20235;-85
2022/01/03 08:51:40;;;;;;;6.30;4.27;;;;;;;13.00;65.08;98928.88;6818537;29;20230;-84
2022/01/03 08:55:02;;;;;;;8.53;4.30;;;;;;;13.27;64.63;98927.69;6809897;29;20214;-84
2022/01/03 08:58:25;;;;;;;10.00;4.37;;;;;;;13.28;64.86;98923.91;6818566;29;20206;-84
2022/01/03 09:01:48;;;;;;;8.87;4.20;;;;;;;14.24;63.21;98923.28;6821328;29;20282;-84
2022/01/03 09:05:09;;;;;;;9.87;3.20;;;;;;;14.55;59.99;98902.22;6818949;29;20214;-85
2022/01/03 09:08:46;;;;;;;8.47;4.47;;;;;;;13.81;62.58;98898.03;6818597;29;20238;-84
2022/01/03 09:12:09;;;;;;;13.27;5.20;;;;;;;14.76;60.36;98914.50;6709430;29;20238;-86
2022/01/03 09:15:31;;;;;;;6.37;3.83;;;;;;;14.83;60.25;98912.50;6692717;29;20213;-85
2022/01/03 09:18:54;;;;;;;7.10;3.90;;;;;;;14.81;59.69;98899.16;6691653;29;20206;-85
2022/01/03 09:22:19;;;;;;;11.00;4.00;;;;;;;14.81;60.00;98915.44;6699431;29;20360;-84
2022/01/03 09:29:26;;;;;;;9.30;3.73;;;;;;;15.03;58.09;98910.34;6712716;29;20205;-86
2022/01/03 09:32:47;;;;;;;8.90;4.00;;;;;;;14.99;59.09;98892.88;6697613;29;20723;-85
2022/01/03 09:36:10;;;;;;;5.43;3.70;;;;;;;15.27;57.36;98896.59;6708955;29;20208;-85
2022/01/03 09:39:32;;;;;;;5.63;3.20;;;;;;;15.42;56.71;98888.88;6716118;29;20723;-85
2022/01/03 09:42:57;;;;;;;6.47;3.30;;;;;;;15.31;56.52;98889.66;6716137;29;20233;-85
2022/01/03 09:46:21;;;;;;;7.77;3.07;;;;;;;15.34;54.93;98888.41;6713435;29;20213;-85
2022/01/03 09:49:43;;;;;;;7.27;2.47;;;;;;;15.63;53.66;98879.34;6770612;29;20580;-86
2022/01/03 09:53:06;;;;;;;3.53;1.90;;;;;;;15.53;52.37;98873.66;6798933;29;20235;-85
2022/01/03 09:56:29;;;;;;;7.37;2.73;;;;;;;15.68;52.64;98888.44;6797034;29;20204;-84
2022/01/03 09:59:51;;;;;;;9.03;2.97;;;;;;;15.74;50.75;98882.06;6795954;29;20670;-85
2022/01/03 10:03:12;;;;;;;6.03;2.73;;;;;;;15.94;50.58;98873.53;6817497;28;20232;-85
2022/01/03 10:06:34;;;;;;;7.13;2.60;;;;;;;15.74;51.06;98860.31;6799374;29;20243;-85
2022/01/03 10:09:57;;;;;;;4.80;2.40;;;;;;;15.75;50.21;98886.44;6818190;29;20212;-85
2022/01/03 10:13:18;;;;;;;5.00;2.67;;;;;;;15.11;52.04;98864.69;6822702;29;20247;-85
2022/01/03 10:16:40;;;;;;;7.83;2.43;;;;;;;15.44;52.09;98880.47;6822099;29;20218;-85
2022/01/03 10:20:02;;;;;;;6.53;2.50;;;;;;;15.22;51.30;98857.63;6822234;28;20659;-85
2022/01/03 10:23:23;;;;;;;4.77;2.17;;;;;;;15.60;50.84;98882.53;6822077;29;20358;-86
2022/01/03 10:26:54;;;;;;;9.13;2.53;;;;;;;15.69;50.70;98879.22;6820134;29;20227;-84
2022/01/03 10:33:40;;;;;;;5.77;2.20;;;;;;;15.98;49.22;98872.03;6762065;29;20228;-78
2022/01/03 10:37:11;;;;;;;6.80;2.90;;;;;;;15.67;49.55;98807.13;6767314;29;20217;-78
2022/01/03 10:40:32;;;;;;;4.93;2.37;;;;;;;15.40;49.69;98839.38;6767389;29;20215;-78
2022/01/03 10:43:57;;;;;;;3.93;2.20;;;;;;;15.64;49.27;98788.59;6768784;29;20240;-79
2022/01/03 10:47:30;;;;;;;8.77;2.47;;;;;;;16.03;49.38;98872.09;6768529;29;20240;-78
2022/01/03 10:50:53;;;;;;;5.80;2.40;;;;;;;15.73;49.23;98795.28;6768123;29;20251;-78
2022/01/03 10:54:18;;;;;;;5.47;2.50;;;;;;;15.50;49.08;98785.28;6754733;29;20217;-78
2022/01/03 10:57:53;;;;;;;7.50;3.33;;;;;;;15.38;49.90;98756.44;6749062;29;20218;-82
2022/01/03 11:01:21;;;;;;;5.47;2.43;;;;;;;15.78;49.30;98858.78;6742888;29;20214;-77
2022/01/03 11:04:49;;;;;;;3.00;2.30;;;;;;;15.28;49.89;98788.78;6742135;29;20199;-78
2022/01/03 11:11:55;;;;;;;3.53;2.53;;;;;;;16.55;48.28;98852.88;6741218;29;20229;-78
2022/01/03 11:15:21;;;;;;;5.80;3.43;;;;;;;16.40;47.97;98824.53;6742337;29;20230;-78
2022/01/03 11:18:46;;;;;;;5.53;2.80;;;;;;;16.19;48.53;98749.81;6765251;29;20270;-78
2022/01/03 11:22:08;;;;;;;4.47;2.10;;;;;;;16.73;48.03;98836.34;6767449;29;20227;-78
2022/01/03 11:25:31;;;;;;;12.33;2.33;;;;;;;16.47;48.40;98819.75;6767481;29;20213;-78
2022/01/03 11:28:53;;;;;;;7.80;2.63;;;;;;;15.81;48.42;98744.09;6767402;29;20236;-78
2022/01/03 11:32:15;;;;;;;7.47;2.53;;;;;;;16.08;48.40;98764.25;6767377;29;20228;-78
2022/01/03 11:35:39;;;;;;;6.63;2.20;;;;;;;16.24;47.81;98809.75;6766752;29;20254;-78
2022/01/03 11:39:04;;;;;;;4.47;2.07;;;;;;;16.01;48.95;98760.03;6767164;29;20204;-78
2022/01/03 11:42:26;;;;;;;5.33;2.53;;;;;;;16.62;47.79;98796.38;6766330;29;20201;-78
2022/01/03 11:45:49;;;;;;;4.60;2.20;;;;;;;16.45;47.50;98729.38;6757175;29;20209;-78
2022/01/03 11:49:11;;;;;;;5.93;2.37;;;;;;;16.92;46.61;98791.50;6753034;29;20260;-78
2022/01/03 11:52:37;;;;;;;3.53;2.33;;;;;;;16.32;47.90;98740.50;6753024;29;20208;-78
2022/01/03 11:56:02;;;;;;;11.73;3.50;;;;;;;16.64;48.06;98782.53;6745829;29;20594;-79
2022/01/03 12:03:36;;;;;;;4.77;2.43;;;;;;;16.52;46.84;98695.47;6741347;29;20209;-88
2022/01/03 12:06:47;;;;;;;7.10;2.20;;;;;;;16.02;48.12;98701.84;6742530;29;20207;-90
2022/01/03 12:10:11;;;;;;;6.13;2.37;;;;;;;16.28;47.15;98672.16;6741267;29;20240;-89
2022/01/03 12:13:50;;;;;;;8.10;2.57;;;;;;;16.61;47.09;98783.00;6741645;29;20235;-93
2022/01/03 12:17:15;;;;;;;6.03;2.97;;;;;;;16.08;46.79;98693.56;6741052;29;20346;-88
2022/01/03 12:20:41;;;;;;;6.40;2.37;;;;;;;15.80;46.25;98603.00;6740691;29;20205;-87
2022/01/03 12:24:03;;;;;;;2.97;2.20;;;;;;;15.71;45.40;98618.88;6740520;29;20264;-87
2022/01/03 12:27:41;;;;;;;5.93;2.00;;;;;;;16.04;45.73;98721.47;6745799;29;20236;-78
2022/01/03 12:31:02;;;;;;;5.87;2.40;;;;;;;16.39;44.94;98766.53;6754048;29;20220;-81
2022/01/03 12:34:24;;;;;;;2.60;1.60;;;;;;;16.12;43.58;98742.84;6750856;29;20213;-80
2022/01/03 12:37:48;;;;;;;3.10;1.80;;;;;;;16.25;43.73;98739.84;6754679;29;20209;-79
2022/01/03 12:41:10;;;;;;;3.83;2.07;;;;;;;16.58;43.33;98735.31;6759552;29;20221;-78
2022/01/03 12:44:53;;;;;;;3.77;1.93;;;;;;;15.52;43.49;98660.84;6757876;29;20218;-78
2022/01/03 12:48:19;;;;;;;5.10;1.80;;;;;;;15.99;43.77;98691.47;6748433;29;20238;-78
2022/01/03 12:51:41;;;;;;;3.83;2.00;;;;;;;16.11;43.69;98694.97;6779340;29;20726;-78
2022/01/03 12:55:02;;;;;;;2.13;1.57;;;;;;;16.39;44.18;98725.72;6791711;29;20205;-78
2022/01/03 12:58:41;;;;;;;3.10;2.20;;;;;;;16.04;44.20;98714.13;6775612;29;20563;-83
2022/01/03 13:02:31;;;;;;;5.13;1.77;;;;;;;15.95;44.16;98679.41;6753248;29;20201;-79
2022/01/03 13:06:10;;;;;;;2.93;2.43;;;;;;;15.94;44.63;98703.06;6752596;29;20208;-79
2022/01/03 13:09:32;;;;;;;13.73;7.20;;;;;;;16.58;43.78;98693.69;6752345;29;20592;-79
2022/01/03 13:12:54;;;;;;;9.90;6.13;;;;;;;16.41;43.38;98644.69;6749218;29;20237;-78
2022/01/03 13:16:20;;;;;;;5.30;2.70;;;;;;;15.97;44.03;98590.25;6754403;29;20214;-78
2022/01/03 13:19:43;;;;;;;3.70;1.70;;;;;;;15.99;43.15;98534.53;6757791;29;20214;-80
2022/01/03 13:23:29;;;;;;;3.03;1.87;;;;;;;15.81;43.72;98564.69;6764389;29;20297;-95
2022/01/03 13:31:07;;;;;;;5.03;1.73;;;;;;;16.04;43.72;98539.28;6726522;29;20283;-91
2022/01/03 13:34:31;;;;;;;6.57;1.80;;;;;;;17.11;42.91;98637.63;6740025;29;20701;-90
2022/01/03 13:37:55;;;;;;;4.53;2.03;;;;;;;16.00;42.79;98508.19;6739811;29;20716;-90
2022/01/03 13:41:19;;;;;;;3.03;1.73;;;;;;;16.65;42.83;98560.97;6738725;29;20218;-90
2022/01/03 13:51:59;;;;;;;4.13;2.07;;;;;;;17.31;42.03;98590.75;6739110;29;20207;-90
2022/01/03 13:55:26;;;;;;;6.20;2.33;;;;;;;17.67;41.39;98604.59;6740063;29;20213;-90
2022/01/03 13:58:48;;;;;;;3.43;2.03;;;;;;;16.91;41.66;98522.94;6741464;29;20213;-88
2022/01/03 14:02:12;;;;;;;4.73;3.30;;;;;;;16.31;42.93;98492.09;6745520;29;20571;-89
2022/01/03 14:05:35;;;;;;;4.60;2.77;;;;;;;17.07;41.79;98552.03;6746470;29;20209;-79
2022/01/03 14:08:58;;;;;;;3.07;1.90;;;;;;;16.75;43.16;98591.06;6758959;29;20228;-82
2022/01/03 14:12:21;;;;;;;5.40;2.60;;;;;;;15.97;43.08;98498.63;6769991;29;20584;-81
2022/01/03 14:16:03;;;;;;;5.17;2.43;;;;;;;16.48;42.10;98505.72;6768730;29;20243;-81
2022/01/03 14:19:35;;;;;;;4.77;2.30;;;;;;;16.70;42.81;98575.44;6769445;29;20209;-82
2022/01/03 14:22:57;;;;;;;4.27;2.10;;;;;;;17.24;41.90;98585.50;6769305;29;20221;-81
2022/01/03 14:26:21;;;;;;;3.77;2.30;;;;;;;16.80;42.42;98585.69;6770059;29;20587;-81
2022/01/03 14:29:44;;;;;;;3.20;2.00;;;;;;;16.08;42.64;98489.56;6761193;29;20225;-82
2022/01/03 14:33:07;;;;;;;5.73;2.07;;;;;;;16.37;43.31;98580.91;6755870;29;20580;-82
2022/01/03 14:36:29;;;;;;;4.90;2.10;;;;;;;16.44;43.53;98570.72;6741838;29;20240;-82
2022/01/03 14:39:52;;;;;;;4.57;2.13;;;;;;;16.88;42.27;98547.13;6742536;29;20213;-82
2022/01/03 14:43:22;;;;;;;5.97;2.93;;;;;;;16.51;42.37;98568.63;6742234;29;20579;-83
2022/01/03 14:46:46;;;;;;;7.27;4.37;;;;;;;15.78;42.60;98480.06;6741991;29;20213;-82
2022/01/03 14:50:08;;;;;;;6.13;3.03;;;;;;;15.72;43.13;98510.94;6742729;29;20228;-82
2022/01/03 14:53:30;;;;;;;4.73;2.10;;;;;;;15.91;43.04;98479.75;6742197;29;20720;-82
2022/01/03 14:56:53;;;;;;;20.50;11.50;;;;;;;16.42;42.78;98523.03;6742314;29;20216;-82
2022/01/03 15:00:16;;;;;;;3.70;2.23;;;;;;;16.31;42.50;98557.41;6742378;29;20301;-82
2022/01/03 15:03:39;;;;;;;3.20;2.43;;;;;;;16.43;42.86;98538.28;6740884;29;20214;-82
2022/01/03 15:07:09;;;;;;;4.47;2.53;;;;;;;16.80;41.65;98528.53;6741956;29;20221;-82
2022/01/03 15:10:34;;;;;;;6.70;2.63;;;;;;;16.52;42.08;98496.78;6741685;29;20236;-83
2022/01/03 15:13:56;;;;;;;3.77;2.57;;;;;;;16.48;42.48;98522.03;6741794;29;20234;-82
2022/01/03 15:17:18;;;;;;;3.07;1.70;;;;;;;16.58;40.99;98443.28;6755661;29;20312;-78
2022/01/03 15:20:41;;;;;;;2.53;2.10;;;;;;;16.62;42.09;98518.72;6767713;29;20228;-79
2022/01/03 15:24:03;;;;;;;1.97;1.77;;;;;;;16.63;41.08;98504.03;6767580;29;20220;-79
2022/01/03 15:27:25;;;;;;;3.47;2.13;;;;;;;16.73;41.35;98497.91;6767522;29;20570;-78
2022/01/03 15:30:47;;;;;;;3.37;2.17;;;;;;;16.84;41.17;98513.31;6767452;29;20232;-79
2022/01/03 15:34:08;;;;;;;3.97;1.70;;;;;;;16.47;41.16;98445.03;6767183;29;20216;-81
2022/01/03 15:37:31;;;;;;;4.97;3.07;;;;;;;16.06;41.45;98450.09;6753958;29;20224;-78
2022/01/03 15:40:54;;;;;;;5.40;2.97;;;;;;;16.38;41.46;98500.09;6765920;29;20216;-78
2022/01/03 15:44:15;;;;;;;4.23;2.20;;;;;;;16.51;41.58;98500.59;6751487;29;20205;-78
2022/01/03 15:47:37;;;;;;;4.67;1.93;;;;;;;16.35;41.60;98485.06;6766428;29;20232;-78
2022/01/03 15:50:59;;;;;;;3.97;2.03;;;;;;;16.08;41.32;98445.22;6766838;29;20273;-78
2022/01/03 15:54:23;;;;;;;3.33;1.97;;;;;;;16.54;41.11;98531.94;6762062;29;20225;-78
2022/01/03 15:57:44;;;;;;;6.03;2.27;;;;;;;16.42;41.31;98504.00;6766960;29;20206;-78
2022/01/03 16:01:06;;;;;;;5.97;2.00;;;;;;;16.35;40.78;98441.53;6764328;29;20229;-78
2022/01/03 16:04:28;;;;;;;3.60;1.90;;;;;;;15.79;41.13;98405.59;6754679;29;20238;-78
2022/01/03 16:07:50;;;;;;;4.37;1.60;;;;;;;16.50;41.10;98490.78;6762958;29;20252;-78
2022/01/03 16:11:13;;;;;;;4.77;1.90;;;;;;;16.28;40.96;98430.03;6755990;29;20215;-78
2022/01/03 16:14:35;;;;;;;3.90;2.10;;;;;;;15.81;42.02;98425.22;6762759;29;20225;-78
2022/01/03 16:17:56;;;;;;;4.67;2.60;;;;;;;15.84;42.41;98487.25;6765824;29;20659;-78
2022/01/03 16:21:18;;;;;;;4.40;2.67;;;;;;;16.07;41.70;98409.06;6765586;29;20284;-78
2022/01/03 16:24:40;;;;;;;2.83;2.33;;;;;;;15.74;42.24;98400.13;6764965;29;20238;-78
2022/01/03 16:28:03;;;;;;;2.10;1.93;;;;;;;16.06;40.94;98412.03;6757266;29;20230;-78
2022/01/03 16:31:25;;;;;;;3.77;1.80;;;;;;;16.16;42.10;98475.53;6751464;29;20221;-77
2022/01/03 16:34:48;;;;;;;4.77;2.60;;;;;;;15.67;43.27;98462.78;6746576;29;20217;-78
2022/01/03 16:38:11;;;;;;;5.63;2.40;;;;;;;15.97;43.30;98467.88;6765844;29;20491;-78
2022/01/03 16:41:32;;;;;;;3.33;2.07;;;;;;;15.69;43.75;98457.09;6765469;29;20212;-78
2022/01/03 16:44:56;;;;;;;3.40;1.90;;;;;;;15.30;43.72;98376.50;6765559;29;20301;-78
2022/01/03 16:48:18;;;;;;;2.93;1.93;;;;;;;16.27;43.22;98460.22;6761303;29;20233;-78
2022/01/03 16:51:40;;;;;;;1.80;1.70;;;;;;;15.62;43.90;98380.34;6742080;29;20209;-78
2022/01/03 16:55:02;;;;;;;7.37;2.13;;;;;;;15.75;43.67;98386.25;6764149;29;20243;-79
2022/01/03 16:58:23;;;;;;;7.33;4.60;;;;;;;15.48;44.47;98368.13;6749554;29;20207;-77
2022/01/03 17:01:49;;;;;;;11.63;5.87;;;;;;;15.71;44.59;98436.75;6750820;29;20202;-80
2022/01/03 17:05:10;;;;;;;3.93;2.33;;;;;;;15.64;44.30;98349.09;6747354;29;20213;-77
2022/01/03 17:08:32;;;;;;;5.13;3.77;;;;;;;15.50;44.53;98355.97;6738855;29;20693;-76
2022/01/03 17:11:55;;;;;;;2.30;2.10;;;;;;;16.03;44.10;98377.16;6738574;29;20214;-77
2022/01/03 17:15:17;;;;;;;5.57;3.37;;;;;;;15.92;46.00;98416.16;6738265;29;20277;-75
2022/01/03 17:18:41;;;;;;;2.90;2.10;;;;;;;15.88;43.30;98309.81;6738939;29;20202;-76
2022/01/03 17:22:03;;;;;;;4.60;2.00;;;;;;;15.86;44.64;98376.38;6739963;29;20215;-77
2022/01/03 17:25:25;;;;;;;4.83;2.13;;;;;;;16.26;43.60;98356.00;6738062;29;20692;-75
2022/01/03 17:28:47;;;;;;;3.03;2.00;;;;;;;15.78;44.05;98314.25;6737645;29;20238;-76
2022/01/03 17:32:12;;;;;;;3.37;1.93;;;;;;;16.19;43.97;98381.75;6758106;29;20228;-80
2022/01/03 17:35:35;;;;;;;2.80;1.90;;;;;;;16.22;44.07;98384.78;6767953;29;20296;-79
2022/01/03 17:38:57;;;;;;;4.83;2.30;;;;;;;15.75;44.34;98348.19;6767632;29;20341;-80
2022/01/03 17:42:19;;;;;;;6.67;2.90;;;;;;;15.38;44.76;98311.75;6766783;29;20210;-80
2022/01/03 17:45:42;;;;;;;3.63;2.40;;;;;;;15.94;43.88;98321.56;6753849;29;20209;-81
2022/01/03 17:49:04;;;;;;;10.03;5.90;;;;;;;15.64;44.13;98305.63;6762442;29;20300;-81
2022/01/03 17:52:32;;;;;;;3.70;2.70;;;;;;;16.07;44.71;98386.47;6765934;29;20717;-80
2022/01/03 17:55:55;;;;;;;4.50;2.90;;;;;;;16.19;44.44;98398.06;6743782;29;20205;-80
2022/01/03 17:59:16;;;;;;;6.53;2.67;;;;;;;15.42;45.01;98307.47;6763372;29;20213;-77
2022/01/03 18:02:39;;;;;;;5.33;2.80;;;;;;;16.16;44.59;98376.81;6769238;29;20216;-79
2022/01/03 18:06:02;;;;;;;3.53;2.10;;;;;;;16.00;45.29;98374.94;6767289;29;20214;-79
2022/01/03 18:09:26;;;;;;;6.70;2.80;;;;;;;15.65;45.11;98304.59;6769561;29;20234;-77
2022/01/03 18:12:53;;;;;;;3.97;2.60;;;;;;;16.08;44.73;98352.75;6768590;29;20216;-77
2022/01/03 18:16:14;;;;;;;3.53;2.23;;;;;;;15.48;45.51;98273.88;6767552;29;20204;-78
2022/01/03 18:19:36;;;;;;;3.83;2.23;;;;;;;15.06;46.86;98301.69;6762241;29;20236;-78
2022/01/03 18:22:59;;;;;;;4.50;2.00;;;;;;;15.35;46.57;98314.16;6786405;29;20218;-78
2022/01/03 18:26:23;;;;;;;3.03;2.30;;;;;;;15.51;46.57;98335.88;6767238;29;20221;-79
2022/01/03 18:29:44;;;;;;;3.30;2.13;;;;;;;15.26;46.01;98263.97;6765675;29;20247;-78
2022/01/03 18:33:07;;;;;;;3.27;2.17;;;;;;;14.88;45.92;98212.34;6758710;29;20239;-77
2022/01/03 18:36:28;;;;;;;4.83;2.20;;;;;;;15.20;46.96;98332.84;6745297;29;20244;-77
2022/01/03 18:39:50;;;;;;;4.73;1.80;;;;;;;15.87;45.93;98318.22;6751726;29;20207;-78
2022/01/03 18:43:13;;;;;;;4.27;2.13;;;;;;;15.53;45.74;98271.25;6767321;29;20219;-77
2022/01/03 18:46:37;;;;;;;3.63;1.90;;;;;;;15.44;45.68;98261.03;6766762;29;20209;-78
2022/01/03 18:49:58;;;;;;;5.13;2.30;;;;;;;15.83;45.90;98309.75;6768507;29;20269;-79
2022/01/03 18:53:20;;;;;;;4.97;2.33;;;;;;;16.07;45.34;98313.88;6767002;29;20236;-78
2022/01/03 18:56:42;;;;;;;3.67;1.90;;;;;;;15.71;45.72;98232.09;6745140;29;20245;-78
2022/01/03 19:00:08;;;;;;;3.30;2.27;;;;;;;16.15;44.93;98293.59;6765570;29;20204;-78
2022/01/03 19:03:29;;;;;;;4.23;2.10;;;;;;;15.23;45.95;98208.25;6766117;29;20226;-78
2022/01/03 19:06:51;;;;;;;2.17;1.93;;;;;;;15.09;46.43;98225.97;6767285;29;20227;-75
2022/01/03 19:10:13;;;;;;;5.00;2.80;;;;;;;15.20;46.74;98251.38;6767677;29;20256;-75
2022/01/03 19:13:35;;;;;;;4.60;2.13;;;;;;;15.75;46.08;98271.28;6768273;29;20207;-78
2022/01/03 19:16:58;;;;;;;2.73;2.43;;;;;;;15.79;45.26;98254.22;6758972;29;20571;-78
2022/01/03 19:20:21;;;;;;;4.60;2.80;;;;;;;14.85;46.15;98172.94;6740593;29;20213;-91
2022/01/03 19:23:43;;;;;;;6.60;3.00;;;;;;;15.31;46.69;98259.47;6739626;29;20223;-78
2022/01/03 19:27:05;;;;;;;2.40;2.03;;;;;;;14.82;46.67;98205.97;6739435;29;20218;-80
2022/01/03 19:30:27;;;;;;;3.97;2.63;;;;;;;15.33;45.51;98196.78;6739684;29;20246;-79
2022/01/03 19:41:09;;;;;;;2.33;2.07;;;;;;;15.72;45.47;98231.84;6740537;29;20205;-79
2022/01/03 19:44:31;;;;;;;3.47;2.00;;;;;;;15.32;46.08;98209.53;6747512;29;20208;-79
2022/01/03 19:47:53;;;;;;;3.37;2.20;;;;;;;15.38;44.91;98150.66;6747791;29;20213;-79
2022/01/03 19:51:16;;;;;;;2.90;2.10;;;;;;;15.70;45.66;98228.53;6755379;29;20239;-79
2022/01/03 19:54:38;;;;;;;5.20;2.77;;;;;;;15.55;44.98;98165.84;6754489;29;20204;-79
2022/01/03 19:58:00;;;;;;;3.13;2.13;;;;;;;15.60;45.17;98197.69;6765308;29;20217;-78
2022/01/03 20:01:24;;;;;;;3.10;2.10;;;;;;;15.67;45.08;98193.72;6765593;29;20211;-79
2022/01/03 20:04:48;;;;;;;6.23;2.50;;;;;;;15.44;45.02;98155.91;6765300;29;20299;-78
2022/01/03 20:08:11;;;;;;;3.87;2.20;;;;;;;15.66;45.16;98170.34;6765597;29;20239;-79
2022/01/03 20:11:33;;;;;;;3.67;2.20;;;;;;;15.51;45.85;98181.00;6765514;29;20820;-79
2022/01/03 20:14:56;;;;;;;4.37;2.63;;;;;;;15.23;45.89;98129.50;6749035;29;20214;-79
2022/01/03 20:18:19;;;;;;;2.73;2.33;;;;;;;15.26;46.68;98182.50;6767544;29;20265;-77
2022/01/03 20:21:44;;;;;;;2.13;1.93;;;;;;;14.88;46.87;98134.47;6774218;29;20220;-78
2022/01/03 20:25:11;;;;;;;2.20;2.00;;;;;;;15.34;46.55;98163.13;6764929;29;20207;-79
2022/01/03 20:28:41;;;;;;;5.23;2.30;;;;;;;15.03;46.16;98106.69;6767134;29;20243;-91
2022/01/03 20:36:14;;;;;;;5.03;2.37;;;;;;;15.55;47.15;98194.91;6751676;29;20642;-78
2022/01/03 20:39:36;;;;;;;3.07;2.03;;;;;;;15.33;47.23;98165.00;6765105;29;20211;-90
2022/01/03 20:43:00;;;;;;;2.93;2.67;;;;;;;15.40;47.33;98175.69;6766226;29;20209;-92
2022/01/03 20:46:21;;;;;;;2.67;2.23;;;;;;;15.03;47.86;98140.09;6764429;29;20219;-79
2022/01/03 20:49:43;;;;;;;2.50;1.80;;;;;;;15.50;47.14;98157.63;6753729;29;20235;-78
2022/01/03 20:53:05;;;;;;;2.97;2.20;;;;;;;15.20;47.73;98121.88;6754746;29;20204;-78
2022/01/03 20:56:27;;;;;;;3.60;2.30;;;;;;;15.21;48.76;98180.53;6751178;29;20217;-84
2022/01/03 20:59:50;;;;;;;2.87;1.90;;;;;;;15.25;48.12;98111.09;6751262;29;20210;-78
2022/01/03 21:03:11;;;;;;;4.43;2.20;;;;;;;15.36;48.92;98137.34;6750801;29;20691;-78
2022/01/03 21:06:33;;;;;;;2.87;2.10;;;;;;;15.40;49.06;98132.22;6738043;29;20215;-78